OCN2G EDDM-LGZA
Flight info
| Callsign | OCN2G |
|---|---|
| Flight time | N/A |
| Altitude | 37000 |
| Route | VAVOR3E/08R VAVOR M867 RADIZ DCT VEKEN DCT RJK DCT AIOSA DCT LUPAL DCT LATAN UM872 ASTUS |
| Aircraft | A320/M-SDE3FGHIRWY/LB1 |
Departure
| Time | 2026-05-06 14:49 |
|---|---|
| Airport | Munich Airport (EDDM) |
Arrival
| Time | N/A |
|---|---|
| Airport | Zakynthos International Airport Dionysios Solomos (LGZA) |
| Time | Latitude | Longitude | Altitude | Speed | Heading |
|---|---|---|---|---|---|
| 2026-05-06 14:06 | 48.35047 | 11.80483 | 1486 ft | 0 kts | 173° |
| 2026-05-06 14:33 | 48.35050 | 11.80482 | 1485 ft | 3 kts | 173° |
| 2026-05-06 14:33 | 48.35077 | 11.80478 | 1481 ft | 4 kts | 173° |
| 2026-05-06 14:34 | 48.35102 | 11.80474 | 1472 ft | 1 kts | 173° |
| 2026-05-06 14:34 | 48.35125 | 11.80472 | 1477 ft | 4 kts | 190° |
| 2026-05-06 14:34 | 48.35150 | 11.80486 | 1475 ft | 4 kts | 222° |
| 2026-05-06 14:34 | 48.35164 | 11.80517 | 1471 ft | 3 kts | 263° |
| 2026-05-06 14:35 | 48.35166 | 11.80547 | 1475 ft | 0 kts | 263° |
| 2026-05-06 14:38 | 48.35164 | 11.80518 | 1479 ft | 10 kts | 263° |
| 2026-05-06 14:39 | 48.35152 | 11.80366 | 1485 ft | 15 kts | 263° |
| 2026-05-06 14:39 | 48.35141 | 11.80218 | 1473 ft | 13 kts | 263° |
| 2026-05-06 14:39 | 48.35131 | 11.80089 | 1485 ft | 11 kts | 263° |
| 2026-05-06 14:39 | 48.35122 | 11.79980 | 1485 ft | 10 kts | 263° |
| 2026-05-06 14:40 | 48.35115 | 11.79882 | 1485 ft | 11 kts | 263° |
| 2026-05-06 14:40 | 48.35106 | 11.79764 | 1485 ft | 11 kts | 263° |
| 2026-05-06 14:40 | 48.35098 | 11.79664 | 1473 ft | 9 kts | 263° |
| 2026-05-06 14:40 | 48.35092 | 11.79579 | 1485 ft | 7 kts | 262° |
| 2026-05-06 14:41 | 48.35045 | 11.79526 | 1482 ft | 13 kts | 183° |
| 2026-05-06 14:41 | 48.34962 | 11.79539 | 1478 ft | 11 kts | 173° |
| 2026-05-06 14:41 | 48.34893 | 11.79551 | 1481 ft | 9 kts | 173° |
| 2026-05-06 14:41 | 48.34836 | 11.79560 | 1485 ft | 7 kts | 175° |
| 2026-05-06 14:42 | 48.34797 | 11.79537 | 1474 ft | 5 kts | 225° |
| 2026-05-06 14:42 | 48.34785 | 11.79471 | 1483 ft | 12 kts | 266° |
| 2026-05-06 14:42 | 48.34776 | 11.79351 | 1485 ft | 13 kts | 263° |
| 2026-05-06 14:42 | 48.34761 | 11.79163 | 1485 ft | 20 kts | 263° |
| 2026-05-06 14:43 | 48.34745 | 11.78953 | 1485 ft | 21 kts | 263° |
| 2026-05-06 14:43 | 48.34728 | 11.78738 | 1485 ft | 21 kts | 263° |
| 2026-05-06 14:43 | 48.34711 | 11.78512 | 1485 ft | 24 kts | 263° |
| 2026-05-06 14:43 | 48.34691 | 11.78252 | 1485 ft | 26 kts | 263° |
| 2026-05-06 14:44 | 48.34670 | 11.77982 | 1485 ft | 27 kts | 263° |
| 2026-05-06 14:44 | 48.34648 | 11.77702 | 1485 ft | 27 kts | 263° |
| 2026-05-06 14:44 | 48.34626 | 11.77413 | 1485 ft | 28 kts | 263° |
| 2026-05-06 14:45 | 48.34579 | 11.76809 | 1475 ft | 30 kts | 263° |
| 2026-05-06 14:45 | 48.34564 | 11.76603 | 1476 ft | 30 kts | 264° |
| 2026-05-06 14:45 | 48.34540 | 11.76288 | 1485 ft | 31 kts | 263° |
| 2026-05-06 14:45 | 48.34515 | 11.75973 | 1485 ft | 28 kts | 264° |
| 2026-05-06 14:46 | 48.34488 | 11.75622 | 1481 ft | 24 kts | 263° |
| 2026-05-06 14:46 | 48.34468 | 11.75367 | 1485 ft | 22 kts | 264° |
| 2026-05-06 14:46 | 48.34424 | 11.75219 | 1485 ft | 13 kts | 186° |
| 2026-05-06 14:46 | 48.34361 | 11.75226 | 1476 ft | 15 kts | 173° |
| 2026-05-06 14:47 | 48.34257 | 11.75244 | 1478 ft | 14 kts | 173° |
| 2026-05-06 14:47 | 48.34164 | 11.75261 | 1485 ft | 13 kts | 173° |
| 2026-05-06 14:47 | 48.34091 | 11.75274 | 1483 ft | 8 kts | 173° |
| 2026-05-06 14:47 | 48.34083 | 11.75304 | 1473 ft | 4 kts | 85° |
| 2026-05-06 14:48 | 48.34096 | 11.75471 | 1485 ft | 45 kts | 83° |
| 2026-05-06 14:48 | 48.34160 | 11.76296 | 1479 ft | 110 kts | 83° |
| 2026-05-06 14:48 | 48.34270 | 11.77708 | 1486 ft | 160 kts | 83° |
| 2026-05-06 14:48 | 48.34406 | 11.79488 | 1903 ft | 172 kts | 84° |
| 2026-05-06 14:49 | 48.34532 | 11.81264 | 2718 ft | 172 kts | 83° |
| 2026-05-06 14:49 | 48.34670 | 11.83137 | 3121 ft | 191 kts | 83° |
| 2026-05-06 14:49 | 48.34824 | 11.85204 | 3403 ft | 213 kts | 84° |
| 2026-05-06 14:49 | 48.34999 | 11.87539 | 3772 ft | 236 kts | 83° |
| 2026-05-06 14:50 | 48.35189 | 11.90030 | 4602 ft | 241 kts | 83° |
| 2026-05-06 14:50 | 48.35381 | 11.92556 | 5438 ft | 246 kts | 86° |
| 2026-05-06 14:50 | 48.35171 | 11.95095 | 6222 ft | 249 kts | 114° |
| 2026-05-06 14:50 | 48.34179 | 11.97233 | 6633 ft | 252 kts | 141° |
| 2026-05-06 14:51 | 48.32792 | 11.98862 | 7238 ft | 253 kts | 144° |
| 2026-05-06 14:51 | 48.31230 | 12.00214 | 7797 ft | 267 kts | 164° |
| 2026-05-06 14:51 | 48.29439 | 12.00945 | 8549 ft | 273 kts | 167° |
| 2026-05-06 14:51 | 48.27595 | 12.01684 | 9436 ft | 276 kts | 167° |
| 2026-05-06 14:52 | 48.25733 | 12.02435 | 10250 ft | 278 kts | 168° |
| 2026-05-06 14:52 | 48.23851 | 12.03196 | 11023 ft | 281 kts | 168° |
| 2026-05-06 14:52 | 48.21950 | 12.03968 | 11787 ft | 285 kts | 168° |
| 2026-05-06 14:52 | 48.20021 | 12.04753 | 12556 ft | 289 kts | 168° |
| 2026-05-06 14:53 | 48.18068 | 12.05543 | 13330 ft | 292 kts | 168° |
| 2026-05-06 14:53 | 48.16099 | 12.06335 | 14034 ft | 295 kts | 169° |
| 2026-05-06 14:53 | 48.14105 | 12.07136 | 14550 ft | 298 kts | 169° |
| 2026-05-06 14:53 | 48.12100 | 12.07944 | 14787 ft | 299 kts | 169° |
| 2026-05-06 14:54 | 48.10122 | 12.08744 | 15502 ft | 299 kts | 169° |
| 2026-05-06 14:54 | 48.08110 | 12.09556 | 16230 ft | 300 kts | 169° |
| 2026-05-06 14:54 | 48.06092 | 12.10369 | 16946 ft | 301 kts | 169° |
| 2026-05-06 14:54 | 48.04062 | 12.11183 | 17656 ft | 303 kts | 170° |
| 2026-05-06 14:55 | 48.02018 | 12.12003 | 18304 ft | 305 kts | 170° |
| 2026-05-06 14:55 | 47.99965 | 12.12825 | 18890 ft | 306 kts | 170° |
| 2026-05-06 14:55 | 47.97898 | 12.13650 | 19476 ft | 308 kts | 170° |
| 2026-05-06 14:55 | 47.95847 | 12.14469 | 20046 ft | 310 kts | 171° |
| 2026-05-06 14:56 | 47.93792 | 12.15542 | 20597 ft | 319 kts | 160° |
| 2026-05-06 14:56 | 47.91864 | 12.17342 | 20866 ft | 340 kts | 147° |
| 2026-05-06 14:56 | 47.90008 | 12.19675 | 20994 ft | 357 kts | 146° |
| 2026-05-06 14:56 | 47.88072 | 12.22117 | 21123 ft | 372 kts | 146° |
| 2026-05-06 14:57 | 47.86069 | 12.24643 | 21371 ft | 382 kts | 146° |
| 2026-05-06 14:57 | 47.84027 | 12.27222 | 21792 ft | 387 kts | 146° |
| 2026-05-06 14:57 | 47.81969 | 12.29821 | 22251 ft | 390 kts | 146° |
| 2026-05-06 14:57 | 47.79890 | 12.32437 | 22716 ft | 393 kts | 146° |
| 2026-05-06 14:58 | 47.77816 | 12.35036 | 23175 ft | 397 kts | 146° |
| 2026-05-06 14:58 | 47.75698 | 12.37679 | 23558 ft | 400 kts | 147° |
| 2026-05-06 14:58 | 47.73557 | 12.40346 | 23909 ft | 403 kts | 147° |
| 2026-05-06 14:58 | 47.71400 | 12.43033 | 24300 ft | 405 kts | 147° |
| 2026-05-06 14:59 | 47.69231 | 12.45727 | 24656 ft | 408 kts | 147° |
| 2026-05-06 14:59 | 47.67043 | 12.48429 | 25048 ft | 411 kts | 147° |
| 2026-05-06 14:59 | 47.64838 | 12.51141 | 25387 ft | 413 kts | 147° |
| 2026-05-06 14:59 | 47.62581 | 12.53769 | 25737 ft | 411 kts | 153° |
| 2026-05-06 15:00 | 47.60131 | 12.55893 | 26120 ft | 408 kts | 159° |
| 2026-05-06 15:00 | 47.57627 | 12.57907 | 26516 ft | 410 kts | 159° |
| 2026-05-06 15:00 | 47.55142 | 12.59905 | 26850 ft | 413 kts | 159° |
| 2026-05-06 15:00 | 47.52615 | 12.61936 | 27244 ft | 415 kts | 159° |
| 2026-05-06 15:01 | 47.50072 | 12.63982 | 27626 ft | 417 kts | 159° |
| 2026-05-06 15:01 | 47.47516 | 12.66041 | 27979 ft | 420 kts | 159° |
| 2026-05-06 15:01 | 47.44945 | 12.68113 | 28341 ft | 422 kts | 159° |
| 2026-05-06 15:01 | 47.42353 | 12.70195 | 28585 ft | 425 kts | 159° |
| 2026-05-06 15:02 | 47.39751 | 12.72279 | 28909 ft | 426 kts | 159° |
| 2026-05-06 15:02 | 47.37134 | 12.74373 | 29214 ft | 428 kts | 159° |
| 2026-05-06 15:02 | 47.34513 | 12.76468 | 29561 ft | 430 kts | 159° |
| 2026-05-06 15:02 | 47.31874 | 12.78581 | 29888 ft | 432 kts | 159° |
| 2026-05-06 15:03 | 47.29226 | 12.80699 | 30218 ft | 434 kts | 159° |
| 2026-05-06 15:03 | 47.26611 | 12.82792 | 30503 ft | 436 kts | 159° |
| 2026-05-06 15:03 | 47.23902 | 12.84953 | 30807 ft | 438 kts | 159° |
| 2026-05-06 15:03 | 47.21263 | 12.87053 | 31198 ft | 437 kts | 159° |
| 2026-05-06 15:04 | 47.18588 | 12.89181 | 31633 ft | 436 kts | 159° |
| 2026-05-06 15:04 | 47.15928 | 12.91298 | 32035 ft | 435 kts | 159° |
| 2026-05-06 15:04 | 47.13271 | 12.93405 | 32434 ft | 434 kts | 159° |
| 2026-05-06 15:04 | 47.10607 | 12.95511 | 32821 ft | 433 kts | 159° |
| 2026-05-06 15:05 | 47.07960 | 12.97601 | 33207 ft | 432 kts | 159° |
| 2026-05-06 15:05 | 47.05312 | 12.99690 | 33557 ft | 431 kts | 159° |
| 2026-05-06 15:05 | 47.02674 | 13.01770 | 33870 ft | 431 kts | 159° |
| 2026-05-06 15:05 | 47.00076 | 13.03818 | 34189 ft | 431 kts | 159° |
| 2026-05-06 15:06 | 46.97439 | 13.05897 | 34480 ft | 431 kts | 159° |
| 2026-05-06 15:06 | 46.94790 | 13.07980 | 34774 ft | 431 kts | 158° |
| 2026-05-06 15:06 | 46.92150 | 13.10053 | 34995 ft | 431 kts | 158° |
| 2026-05-06 15:06 | 46.89507 | 13.12125 | 35226 ft | 431 kts | 158° |
| 2026-05-06 15:07 | 46.86863 | 13.14200 | 35474 ft | 432 kts | 158° |
| 2026-05-06 15:07 | 46.84215 | 13.16273 | 35701 ft | 432 kts | 158° |
| 2026-05-06 15:07 | 46.81556 | 13.18351 | 35900 ft | 434 kts | 158° |
| 2026-05-06 15:07 | 46.78897 | 13.20427 | 36159 ft | 434 kts | 158° |
| 2026-05-06 15:08 | 46.76267 | 13.22480 | 36381 ft | 435 kts | 158° |
| 2026-05-06 15:08 | 46.73602 | 13.24558 | 36579 ft | 435 kts | 158° |
| 2026-05-06 15:08 | 46.70928 | 13.26640 | 36781 ft | 435 kts | 158° |
| 2026-05-06 15:09 | 46.65573 | 13.30797 | 36880 ft | 436 kts | 158° |
| 2026-05-06 15:09 | 46.60224 | 13.34944 | 36883 ft | 436 kts | 158° |
| 2026-05-06 15:10 | 46.54890 | 13.39121 | 36887 ft | 438 kts | 155° |
| 2026-05-06 15:10 | 46.49705 | 13.43743 | 36899 ft | 441 kts | 152° |
| 2026-05-06 15:11 | 46.44565 | 13.48606 | 36900 ft | 441 kts | 152° |
| 2026-05-06 15:11 | 46.39402 | 13.53397 | 36902 ft | 440 kts | 153° |
| 2026-05-06 15:12 | 46.34214 | 13.58086 | 36908 ft | 440 kts | 154° |
| 2026-05-06 15:12 | 46.29055 | 13.62712 | 36916 ft | 439 kts | 153° |
| 2026-05-06 15:13 | 46.23869 | 13.67386 | 36928 ft | 438 kts | 153° |
| 2026-05-06 15:13 | 46.18702 | 13.72041 | 36924 ft | 438 kts | 153° |
| 2026-05-06 15:14 | 46.13533 | 13.76672 | 36928 ft | 436 kts | 154° |
| 2026-05-06 15:14 | 46.08383 | 13.81258 | 36932 ft | 436 kts | 154° |
| 2026-05-06 15:15 | 46.03258 | 13.85819 | 36938 ft | 436 kts | 154° |
| 2026-05-06 15:15 | 45.98101 | 13.90418 | 36937 ft | 435 kts | 154° |
| 2026-05-06 15:16 | 45.92962 | 13.94997 | 36945 ft | 435 kts | 154° |
| 2026-05-06 15:16 | 45.87811 | 13.99568 | 36943 ft | 435 kts | 154° |
| 2026-05-06 15:17 | 45.82697 | 14.04091 | 36933 ft | 434 kts | 154° |
| 2026-05-06 15:17 | 45.77546 | 14.08630 | 36936 ft | 435 kts | 154° |
| 2026-05-06 15:18 | 45.72396 | 14.13161 | 36946 ft | 435 kts | 154° |
| 2026-05-06 15:18 | 45.67228 | 14.17703 | 36953 ft | 436 kts | 154° |
| 2026-05-06 15:19 | 45.62070 | 14.22231 | 36955 ft | 435 kts | 154° |
| 2026-05-06 15:19 | 45.56945 | 14.26723 | 36956 ft | 435 kts | 154° |
| 2026-05-06 15:20 | 45.51776 | 14.31240 | 36957 ft | 435 kts | 154° |
| 2026-05-06 15:20 | 45.46614 | 14.35745 | 36960 ft | 436 kts | 154° |
| 2026-05-06 15:21 | 45.41438 | 14.40241 | 36961 ft | 436 kts | 154° |
| 2026-05-06 15:21 | 45.36260 | 14.44730 | 36960 ft | 436 kts | 154° |
| 2026-05-06 15:22 | 45.31116 | 14.49185 | 36959 ft | 436 kts | 154° |
| 2026-05-06 15:22 | 45.25931 | 14.53650 | 36961 ft | 436 kts | 154° |
| 2026-05-06 15:23 | 45.20742 | 14.58130 | 36963 ft | 436 kts | 154° |
| 2026-05-06 15:23 | 45.15557 | 14.62617 | 36964 ft | 436 kts | 154° |
| 2026-05-06 15:24 | 45.10413 | 14.67070 | 36959 ft | 437 kts | 154° |
| 2026-05-06 15:24 | 45.05232 | 14.71560 | 36958 ft | 437 kts | 154° |
| 2026-05-06 15:25 | 45.00042 | 14.76029 | 36958 ft | 437 kts | 154° |
| 2026-05-06 15:25 | 44.94847 | 14.80484 | 36954 ft | 437 kts | 154° |
| 2026-05-06 15:26 | 44.89641 | 14.84952 | 36953 ft | 438 kts | 154° |
| 2026-05-06 15:26 | 44.84474 | 14.89376 | 36955 ft | 438 kts | 154° |
| 2026-05-06 15:27 | 44.79254 | 14.93840 | 36962 ft | 439 kts | 154° |
| 2026-05-06 15:27 | 44.74026 | 14.98289 | 36961 ft | 439 kts | 154° |
| 2026-05-06 15:28 | 44.68799 | 15.02721 | 36962 ft | 439 kts | 154° |
| 2026-05-06 15:28 | 44.63578 | 15.07146 | 36967 ft | 439 kts | 154° |
| 2026-05-06 15:29 | 44.58382 | 15.11554 | 36966 ft | 440 kts | 154° |
| 2026-05-06 15:29 | 44.53140 | 15.15986 | 36966 ft | 440 kts | 154° |
| 2026-05-06 15:30 | 44.47896 | 15.20403 | 36966 ft | 440 kts | 155° |
| 2026-05-06 15:30 | 44.42636 | 15.24829 | 36983 ft | 441 kts | 155° |
| 2026-05-06 15:31 | 44.37376 | 15.29240 | 36983 ft | 441 kts | 155° |
| 2026-05-06 15:31 | 44.32150 | 15.33618 | 36985 ft | 440 kts | 155° |
| 2026-05-06 15:32 | 44.24279 | 15.40196 | 36993 ft | 440 kts | 155° |
| 2026-05-06 15:32 | 44.19021 | 15.44581 | 36983 ft | 440 kts | 155° |
| 2026-05-06 15:33 | 44.13763 | 15.48952 | 36977 ft | 441 kts | 155° |
| 2026-05-06 15:33 | 44.08496 | 15.53315 | 36980 ft | 441 kts | 155° |
| 2026-05-06 15:34 | 44.03251 | 15.57656 | 36980 ft | 442 kts | 155° |
| 2026-05-06 15:34 | 43.97967 | 15.62025 | 36988 ft | 442 kts | 155° |
| 2026-05-06 15:35 | 43.92678 | 15.66383 | 36986 ft | 442 kts | 155° |
| 2026-05-06 15:35 | 43.87393 | 15.70740 | 36988 ft | 442 kts | 155° |
| 2026-05-06 15:36 | 43.82140 | 15.75058 | 36987 ft | 442 kts | 155° |
| 2026-05-06 15:36 | 43.76847 | 15.79394 | 36992 ft | 442 kts | 155° |
| 2026-05-06 15:37 | 43.71562 | 15.83713 | 36998 ft | 442 kts | 155° |
| 2026-05-06 15:37 | 43.66253 | 15.88041 | 37003 ft | 442 kts | 155° |
| 2026-05-06 15:38 | 43.60958 | 15.92348 | 37013 ft | 442 kts | 155° |
| 2026-05-06 15:38 | 43.55690 | 15.96626 | 37018 ft | 442 kts | 155° |
| 2026-05-06 15:39 | 43.50396 | 16.00921 | 37020 ft | 442 kts | 155° |
| 2026-05-06 15:39 | 43.45101 | 16.05205 | 37019 ft | 441 kts | 156° |
| 2026-05-06 15:40 | 43.39807 | 16.09484 | 37015 ft | 441 kts | 156° |
| 2026-05-06 15:40 | 43.34520 | 16.13755 | 37010 ft | 441 kts | 156° |
| 2026-05-06 15:41 | 43.29268 | 16.17983 | 37006 ft | 441 kts | 156° |
| 2026-05-06 15:41 | 43.23975 | 16.22234 | 36999 ft | 441 kts | 155° |
| 2026-05-06 15:42 | 43.18681 | 16.26476 | 37000 ft | 441 kts | 156° |
| 2026-05-06 15:42 | 43.13379 | 16.30707 | 36998 ft | 441 kts | 156° |
| 2026-05-06 15:43 | 43.08075 | 16.34943 | 37000 ft | 441 kts | 156° |
| 2026-05-06 15:43 | 43.02766 | 16.39164 | 36992 ft | 441 kts | 156° |
| 2026-05-06 15:44 | 42.97490 | 16.43362 | 36984 ft | 442 kts | 155° |
| 2026-05-06 15:44 | 42.92175 | 16.47583 | 36991 ft | 442 kts | 156° |
| 2026-05-06 15:45 | 42.86855 | 16.51789 | 36990 ft | 442 kts | 156° |
| 2026-05-06 15:45 | 42.81528 | 16.55995 | 36988 ft | 443 kts | 156° |
| 2026-05-06 15:46 | 42.76225 | 16.60172 | 36993 ft | 443 kts | 156° |
| 2026-05-06 15:46 | 42.70886 | 16.64366 | 37004 ft | 444 kts | 155° |
| 2026-05-06 15:47 | 42.65539 | 16.68563 | 36992 ft | 444 kts | 155° |
| 2026-05-06 15:47 | 42.60189 | 16.72761 | 36988 ft | 444 kts | 155° |
| 2026-05-06 15:48 | 42.54834 | 16.76946 | 36989 ft | 445 kts | 155° |
| 2026-05-06 15:48 | 42.49506 | 16.81101 | 36991 ft | 445 kts | 155° |
| 2026-05-06 15:49 | 42.44147 | 16.85285 | 36988 ft | 445 kts | 155° |
| 2026-05-06 15:49 | 42.38771 | 16.89469 | 36983 ft | 445 kts | 155° |
| 2026-05-06 15:50 | 42.33392 | 16.93637 | 36980 ft | 446 kts | 155° |
| 2026-05-06 15:50 | 42.28042 | 16.97766 | 36984 ft | 446 kts | 155° |
| 2026-05-06 15:51 | 42.22649 | 17.01932 | 36986 ft | 446 kts | 155° |
| 2026-05-06 15:51 | 42.17266 | 17.06099 | 36985 ft | 447 kts | 155° |
| 2026-05-06 15:52 | 42.11863 | 17.10260 | 36985 ft | 447 kts | 156° |
| 2026-05-06 15:52 | 42.06494 | 17.14374 | 36986 ft | 447 kts | 156° |
| 2026-05-06 15:53 | 42.01090 | 17.18511 | 36993 ft | 448 kts | 156° |